sensor_id;sensor_type;location;lat;lon;timestamp;temperature;humidity
23143;DHT22;11740;51.168;4.112;2023-12-22T00:02:19;9.40;1.00
23143;DHT22;11740;51.168;4.112;2023-12-22T00:04:47;9.40;1.00
23143;DHT22;11740;51.168;4.112;2023-12-22T00:07:14;9.30;1.00
23143;DHT22;11740;51.168;4.112;2023-12-22T00:09:41;9.30;1.00
23143;DHT22;11740;51.168;4.112;2023-12-22T00:12:08;9.30;1.00
23143;DHT22;11740;51.168;4.112;2023-12-22T00:14:35;9.30;1.00
23143;DHT22;11740;51.168;4.112;2023-12-22T00:17:02;9.20;1.00
23143;DHT22;11740;51.168;4.112;2023-12-22T00:19:28;9.20;4.00
23143;DHT22;11740;51.168;4.112;2023-12-22T00:21:55;9.10;31.40
23143;DHT22;11740;51.168;4.112;2023-12-22T00:24:23;9.10;31.80
23143;DHT22;11740;51.168;4.112;2023-12-22T00:26:50;9.10;39.60
23143;DHT22;11740;51.168;4.112;2023-12-22T00:29:17;9.10;99.90
23143;DHT22;11740;51.168;4.112;2023-12-22T00:31:46;9.10;99.90
23143;DHT22;11740;51.168;4.112;2023-12-22T00:34:14;9.10;99.90
23143;DHT22;11740;51.168;4.112;2023-12-22T00:36:41;9.10;99.90
23143;DHT22;11740;51.168;4.112;2023-12-22T00:39:08;9.10;99.90
23143;DHT22;11740;51.168;4.112;2023-12-22T00:41:35;9.10;99.90
23143;DHT22;11740;51.168;4.112;2023-12-22T00:44:02;9.10;99.90
23143;DHT22;11740;51.168;4.112;2023-12-22T00:46:29;9.10;1.00
23143;DHT22;11740;51.168;4.112;2023-12-22T00:48:56;9.10;1.00
23143;DHT22;11740;51.168;4.112;2023-12-22T00:51:23;9.20;1.00
23143;DHT22;11740;51.168;4.112;2023-12-22T00:53:50;9.10;1.00
23143;DHT22;11740;51.168;4.112;2023-12-22T00:56:17;9.20;1.00
23143;DHT22;11740;51.168;4.112;2023-12-22T00:58:43;9.20;1.00
23143;DHT22;11740;51.168;4.112;2023-12-22T01:01:20;9.20;99.90
23143;DHT22;11740;51.168;4.112;2023-12-22T01:03:48;9.20;99.90
23143;DHT22;11740;51.168;4.112;2023-12-22T01:06:14;9.20;99.90
23143;DHT22;11740;51.168;4.112;2023-12-22T01:08:41;9.20;99.90
23143;DHT22;11740;51.168;4.112;2023-12-22T01:11:08;9.30;99.90
23143;DHT22;11740;51.168;4.112;2023-12-22T01:13:35;9.30;99.90
23143;DHT22;11740;51.168;4.112;2023-12-22T01:16:02;9.20;99.90
23143;DHT22;11740;51.168;4.112;2023-12-22T01:18:29;9.20;99.90
23143;DHT22;11740;51.168;4.112;2023-12-22T01:20:57;9.20;99.90
23143;DHT22;11740;51.168;4.112;2023-12-22T01:23:23;9.20;99.90
23143;DHT22;11740;51.168;4.112;2023-12-22T01:25:52;9.20;99.90
23143;DHT22;11740;51.168;4.112;2023-12-22T01:28:19;9.20;99.90
23143;DHT22;11740;51.168;4.112;2023-12-22T01:30:46;9.30;99.90
23143;DHT22;11740;51.168;4.112;2023-12-22T01:33:13;9.20;99.90
23143;DHT22;11740;51.168;4.112;2023-12-22T01:35:40;9.30;99.90
23143;DHT22;11740;51.168;4.112;2023-12-22T01:38:06;9.20;99.90
23143;DHT22;11740;51.168;4.112;2023-12-22T01:40:33;9.20;99.90
23143;DHT22;11740;51.168;4.112;2023-12-22T01:43:01;9.20;99.90
23143;DHT22;11740;51.168;4.112;2023-12-22T01:45:28;9.30;73.00
23143;DHT22;11740;51.168;4.112;2023-12-22T01:47:55;9.30;31.80
23143;DHT22;11740;51.168;4.112;2023-12-22T01:50:22;9.20;1.00
23143;DHT22;11740;51.168;4.112;2023-12-22T01:52:50;9.20;1.00
23143;DHT22;11740;51.168;4.112;2023-12-22T01:55:17;9.30;1.00
23143;DHT22;11740;51.168;4.112;2023-12-22T01:57:45;9.20;1.00
23143;DHT22;11740;51.168;4.112;2023-12-22T02:00:13;9.20;1.00
23143;DHT22;11740;51.168;4.112;2023-12-22T02:02:41;9.30;1.00
23143;DHT22;11740;51.168;4.112;2023-12-22T02:05:11;9.20;1.00
23143;DHT22;11740;51.168;4.112;2023-12-22T02:07:41;9.20;1.00
23143;DHT22;11740;51.168;4.112;2023-12-22T02:10:09;9.20;1.00
23143;DHT22;11740;51.168;4.112;2023-12-22T02:12:37;9.30;1.00
23143;DHT22;11740;51.168;4.112;2023-12-22T02:15:05;9.20;1.00
23143;DHT22;11740;51.168;4.112;2023-12-22T02:20:18;9.10;1.00
23143;DHT22;11740;51.168;4.112;2023-12-22T02:22:45;9.10;1.00
23143;DHT22;11740;51.168;4.112;2023-12-22T02:25:12;9.20;1.00
23143;DHT22;11740;51.168;4.112;2023-12-22T02:28:10;9.20;1.00
23143;DHT22;11740;51.168;4.112;2023-12-22T02:31:07;9.10;1.00
23143;DHT22;11740;51.168;4.112;2023-12-22T02:33:37;9.20;1.00
23143;DHT22;11740;51.168;4.112;2023-12-22T02:36:06;9.10;1.00
23143;DHT22;11740;51.168;4.112;2023-12-22T02:38:35;9.10;1.00
23143;DHT22;11740;51.168;4.112;2023-12-22T02:41:02;9.10;1.00
23143;DHT22;11740;51.168;4.112;2023-12-22T02:43:29;9.10;1.00
23143;DHT22;11740;51.168;4.112;2023-12-22T02:45:56;9.10;1.00
23143;DHT22;11740;51.168;4.112;2023-12-22T02:48:23;9.10;1.00
23143;DHT22;11740;51.168;4.112;2023-12-22T02:50:50;9.10;1.00
23143;DHT22;11740;51.168;4.112;2023-12-22T02:53:17;9.10;1.00
23143;DHT22;11740;51.168;4.112;2023-12-22T02:55:44;9.10;1.00
23143;DHT22;11740;51.168;4.112;2023-12-22T02:58:11;9.10;1.00
23143;DHT22;11740;51.168;4.112;2023-12-22T03:00:37;9.10;1.00
23143;DHT22;11740;51.168;4.112;2023-12-22T03:03:04;9.20;26.40
23143;DHT22;11740;51.168;4.112;2023-12-22T03:05:31;9.20;99.90
23143;DHT22;11740;51.168;4.112;2023-12-22T03:07:58;9.10;99.90
23143;DHT22;11740;51.168;4.112;2023-12-22T03:10:25;9.10;99.90
23143;DHT22;11740;51.168;4.112;2023-12-22T03:12:52;9.10;99.90
23143;DHT22;11740;51.168;4.112;2023-12-22T03:15:19;9.10;99.90
23143;DHT22;11740;51.168;4.112;2023-12-22T03:17:46;9.10;99.90
23143;DHT22;11740;51.168;4.112;2023-12-22T03:20:13;9.10;99.90
23143;DHT22;11740;51.168;4.112;2023-12-22T03:22:40;9.10;99.90
23143;DHT22;11740;51.168;4.112;2023-12-22T03:25:07;9.00;99.90
23143;DHT22;11740;51.168;4.112;2023-12-22T03:27:34;9.00;99.90
23143;DHT22;11740;51.168;4.112;2023-12-22T03:30:01;9.00;1.00
23143;DHT22;11740;51.168;4.112;2023-12-22T03:32:29;9.00;1.00
23143;DHT22;11740;51.168;4.112;2023-12-22T03:34:56;9.00;1.00
23143;DHT22;11740;51.168;4.112;2023-12-22T03:37:23;9.00;1.00
23143;DHT22;11740;51.168;4.112;2023-12-22T03:39:50;8.90;1.00
23143;DHT22;11740;51.168;4.112;2023-12-22T03:42:16;8.90;1.00
23143;DHT22;11740;51.168;4.112;2023-12-22T03:44:43;8.90;1.00
23143;DHT22;11740;51.168;4.112;2023-12-22T03:47:10;8.80;1.00
23143;DHT22;11740;51.168;4.112;2023-12-22T03:49:37;8.80;1.00
23143;DHT22;11740;51.168;4.112;2023-12-22T03:52:04;8.80;1.00
23143;DHT22;11740;51.168;4.112;2023-12-22T03:54:31;8.80;1.00
23143;DHT22;11740;51.168;4.112;2023-12-22T03:56:58;8.80;1.00
23143;DHT22;11740;51.168;4.112;2023-12-22T03:59:25;8.80;1.00
23143;DHT22;11740;51.168;4.112;2023-12-22T04:01:52;8.70;1.00
23143;DHT22;11740;51.168;4.112;2023-12-22T04:04:19;8.70;1.00
23143;DHT22;11740;51.168;4.112;2023-12-22T04:06:49;8.70;1.00
23143;DHT22;11740;51.168;4.112;2023-12-22T04:09:16;8.70;1.00
23143;DHT22;11740;51.168;4.112;2023-12-22T04:11:43;8.70;1.00
23143;DHT22;11740;51.168;4.112;2023-12-22T04:14:10;8.70;1.00
23143;DHT22;11740;51.168;4.112;2023-12-22T04:16:37;8.70;1.00
23143;DHT22;11740;51.168;4.112;2023-12-22T04:19:07;8.70;9.80
23143;DHT22;11740;51.168;4.112;2023-12-22T04:21:38;8.70;33.30
23143;DHT22;11740;51.168;4.112;2023-12-22T04:24:05;8.80;57.50
23143;DHT22;11740;51.168;4.112;2023-12-22T04:26:32;8.80;64.30
23143;DHT22;11740;51.168;4.112;2023-12-22T04:28:59;8.80;70.30
23143;DHT22;11740;51.168;4.112;2023-12-22T04:31:26;8.80;74.20
23143;DHT22;11740;51.168;4.112;2023-12-22T04:33:52;8.80;80.20
23143;DHT22;11740;51.168;4.112;2023-12-22T04:36:19;8.80;65.30
23143;DHT22;11740;51.168;4.112;2023-12-22T04:38:46;8.80;12.20
23143;DHT22;11740;51.168;4.112;2023-12-22T04:41:13;8.80;1.00
23143;DHT22;11740;51.168;4.112;2023-12-22T04:43:40;8.80;1.00
23143;DHT22;11740;51.168;4.112;2023-12-22T04:46:07;8.70;1.00
23143;DHT22;11740;51.168;4.112;2023-12-22T04:48:34;8.80;1.00
23143;DHT22;11740;51.168;4.112;2023-12-22T04:51:01;8.80;1.00
23143;DHT22;11740;51.168;4.112;2023-12-22T04:53:28;8.80;1.00
23143;DHT22;11740;51.168;4.112;2023-12-22T04:55:56;8.80;1.00
23143;DHT22;11740;51.168;4.112;2023-12-22T04:58:23;8.80;1.00
23143;DHT22;11740;51.168;4.112;2023-12-22T05:00:50;8.70;1.00
23143;DHT22;11740;51.168;4.112;2023-12-22T05:03:17;8.70;1.00
23143;DHT22;11740;51.168;4.112;2023-12-22T05:05:44;8.80;1.00
23143;DHT22;11740;51.168;4.112;2023-12-22T05:08:11;8.80;1.00
23143;DHT22;11740;51.168;4.112;2023-12-22T05:10:38;8.70;1.00
23143;DHT22;11740;51.168;4.112;2023-12-22T05:13:05;8.80;1.00
23143;DHT22;11740;51.168;4.112;2023-12-22T05:15:32;8.80;1.00
23143;DHT22;11740;51.168;4.112;2023-12-22T05:17:59;8.80;99.90
23143;DHT22;11740;51.168;4.112;2023-12-22T05:20:26;8.80;99.90
23143;DHT22;11740;51.168;4.112;2023-12-22T05:22:53;8.80;1.00
23143;DHT22;11740;51.168;4.112;2023-12-22T05:25:20;8.80;1.00
23143;DHT22;11740;51.168;4.112;2023-12-22T05:27:47;8.90;99.90
23143;DHT22;11740;51.168;4.112;2023-12-22T05:30:14;8.90;99.90
23143;DHT22;11740;51.168;4.112;2023-12-22T05:32:41;8.90;99.90
23143;DHT22;11740;51.168;4.112;2023-12-22T05:35:08;8.90;99.90
23143;DHT22;11740;51.168;4.112;2023-12-22T05:37:37;8.90;99.90
23143;DHT22;11740;51.168;4.112;2023-12-22T05:40:04;9.00;99.90
23143;DHT22;11740;51.168;4.112;2023-12-22T05:42:33;8.90;1.00
23143;DHT22;11740;51.168;4.112;2023-12-22T05:45:00;8.90;1.00
23143;DHT22;11740;51.168;4.112;2023-12-22T05:47:27;9.00;1.00
23143;DHT22;11740;51.168;4.112;2023-12-22T05:49:54;9.00;1.00
23143;DHT22;11740;51.168;4.112;2023-12-22T05:52:21;9.00;1.00
23143;DHT22;11740;51.168;4.112;2023-12-22T05:54:48;9.00;1.00
23143;DHT22;11740;51.168;4.112;2023-12-22T05:57:15;9.00;99.90
23143;DHT22;11740;51.168;4.112;2023-12-22T05:59:41;9.00;1.00
23143;DHT22;11740;51.168;4.112;2023-12-22T06:02:08;9.00;1.00
23143;DHT22;11740;51.168;4.112;2023-12-22T06:04:35;9.00;1.00
23143;DHT22;11740;51.168;4.112;2023-12-22T06:07:02;9.10;99.90
23143;DHT22;11740;51.168;4.112;2023-12-22T06:09:29;9.10;1.00
23143;DHT22;11740;51.168;4.112;2023-12-22T06:11:57;9.10;99.90
23143;DHT22;11740;51.168;4.112;2023-12-22T06:14:24;9.10;1.00
23143;DHT22;11740;51.168;4.112;2023-12-22T06:16:51;9.10;1.00
23143;DHT22;11740;51.168;4.112;2023-12-22T06:19:20;9.20;99.90
23143;DHT22;11740;51.168;4.112;2023-12-22T06:21:48;9.20;99.90
23143;DHT22;11740;51.168;4.112;2023-12-22T06:24:15;9.20;1.00
23143;DHT22;11740;51.168;4.112;2023-12-22T06:26:43;9.20;1.00
23143;DHT22;11740;51.168;4.112;2023-12-22T06:29:10;9.20;1.00
23143;DHT22;11740;51.168;4.112;2023-12-22T06:31:36;9.20;1.00
23143;DHT22;11740;51.168;4.112;2023-12-22T06:34:03;9.20;1.00
23143;DHT22;11740;51.168;4.112;2023-12-22T06:36:32;9.20;1.00
23143;DHT22;11740;51.168;4.112;2023-12-22T06:38:58;9.30;1.00
23143;DHT22;11740;51.168;4.112;2023-12-22T06:41:30;9.20;1.00
23143;DHT22;11740;51.168;4.112;2023-12-22T06:43:57;9.20;82.50
23143;DHT22;11740;51.168;4.112;2023-12-22T06:46:28;9.20;99.90
23143;DHT22;11740;51.168;4.112;2023-12-22T06:48:56;9.20;99.90
23143;DHT22;11740;51.168;4.112;2023-12-22T06:51:29;9.20;99.90
23143;DHT22;11740;51.168;4.112;2023-12-22T06:54:03;9.10;1.00
23143;DHT22;11740;51.168;4.112;2023-12-22T06:56:33;9.10;58.40
23143;DHT22;11740;51.168;4.112;2023-12-22T06:59:01;9.10;99.90
23143;DHT22;11740;51.168;4.112;2023-12-22T07:01:30;9.00;1.00
23143;DHT22;11740;51.168;4.112;2023-12-22T07:03:58;9.00;1.00
23143;DHT22;11740;51.168;4.112;2023-12-22T07:06:34;9.00;1.00
23143;DHT22;11740;51.168;4.112;2023-12-22T07:11:48;9.00;99.90
23143;DHT22;11740;51.168;4.112;2023-12-22T07:14:17;9.00;1.00
23143;DHT22;11740;51.168;4.112;2023-12-22T07:16:44;8.90;1.00
23143;DHT22;11740;51.168;4.112;2023-12-22T07:19:11;8.90;1.00
23143;DHT22;11740;51.168;4.112;2023-12-22T07:21:41;9.00;1.00
23143;DHT22;11740;51.168;4.112;2023-12-22T07:24:12;9.00;1.00
23143;DHT22;11740;51.168;4.112;2023-12-22T07:26:42;8.90;1.00
23143;DHT22;11740;51.168;4.112;2023-12-22T07:29:08;9.00;1.00
23143;DHT22;11740;51.168;4.112;2023-12-22T07:31:36;9.00;1.00
23143;DHT22;11740;51.168;4.112;2023-12-22T07:34:03;9.00;92.70
23143;DHT22;11740;51.168;4.112;2023-12-22T07:36:30;9.00;28.70
23143;DHT22;11740;51.168;4.112;2023-12-22T07:38:57;8.90;99.90
23143;DHT22;11740;51.168;4.112;2023-12-22T07:41:24;9.00;99.90
23143;DHT22;11740;51.168;4.112;2023-12-22T07:43:51;9.00;99.90
23143;DHT22;11740;51.168;4.112;2023-12-22T07:46:21;8.90;99.90
23143;DHT22;11740;51.168;4.112;2023-12-22T07:48:50;9.00;99.90
23143;DHT22;11740;51.168;4.112;2023-12-22T07:51:18;9.00;99.90
23143;DHT22;11740;51.168;4.112;2023-12-22T07:53:45;9.00;99.90
23143;DHT22;11740;51.168;4.112;2023-12-22T07:56:13;9.00;99.90
23143;DHT22;11740;51.168;4.112;2023-12-22T07:58:40;9.00;99.90
23143;DHT22;11740;51.168;4.112;2023-12-22T08:01:06;9.00;99.90
23143;DHT22;11740;51.168;4.112;2023-12-22T08:03:34;9.00;1.00
23143;DHT22;11740;51.168;4.112;2023-12-22T08:06:01;9.00;1.00
23143;DHT22;11740;51.168;4.112;2023-12-22T08:08:28;9.10;1.00
23143;DHT22;11740;51.168;4.112;2023-12-22T08:10:55;9.00;1.00
23143;DHT22;11740;51.168;4.112;2023-12-22T08:13:22;9.10;1.00
23143;DHT22;11740;51.168;4.112;2023-12-22T08:15:49;9.00;1.00
23143;DHT22;11740;51.168;4.112;2023-12-22T08:18:17;9.10;1.00
23143;DHT22;11740;51.168;4.112;2023-12-22T08:20:44;9.10;7.70
23143;DHT22;11740;51.168;4.112;2023-12-22T08:23:14;9.10;1.00
23143;DHT22;11740;51.168;4.112;2023-12-22T08:25:42;9.10;12.60
23143;DHT22;11740;51.168;4.112;2023-12-22T08:28:11;9.10;33.60
23143;DHT22;11740;51.168;4.112;2023-12-22T08:30:39;9.10;27.50
23143;DHT22;11740;51.168;4.112;2023-12-22T08:33:06;9.10;37.50
23143;DHT22;11740;51.168;4.112;2023-12-22T08:35:34;9.20;76.20
23143;DHT22;11740;51.168;4.112;2023-12-22T08:38:02;9.20;99.90
23143;DHT22;11740;51.168;4.112;2023-12-22T08:40:29;9.20;99.90
23143;DHT22;11740;51.168;4.112;2023-12-22T08:42:56;9.20;99.90
23143;DHT22;11740;51.168;4.112;2023-12-22T08:45:28;9.30;99.90
23143;DHT22;11740;51.168;4.112;2023-12-22T08:47:56;9.20;99.90
23143;DHT22;11740;51.168;4.112;2023-12-22T08:50:23;9.30;99.90
23143;DHT22;11740;51.168;4.112;2023-12-22T08:52:51;9.30;99.90
23143;DHT22;11740;51.168;4.112;2023-12-22T08:55:18;9.30;99.90
23143;DHT22;11740;51.168;4.112;2023-12-22T08:57:45;9.40;99.90
23143;DHT22;11740;51.168;4.112;2023-12-22T09:00:25;9.40;99.90
23143;DHT22;11740;51.168;4.112;2023-12-22T09:02:51;9.40;99.90
23143;DHT22;11740;51.168;4.112;2023-12-22T09:05:19;9.40;99.90
23143;DHT22;11740;51.168;4.112;2023-12-22T09:07:47;9.40;99.90
23143;DHT22;11740;51.168;4.112;2023-12-22T09:10:15;9.40;99.90
23143;DHT22;11740;51.168;4.112;2023-12-22T09:12:42;9.40;99.90
23143;DHT22;11740;51.168;4.112;2023-12-22T09:15:09;9.40;99.90
23143;DHT22;11740;51.168;4.112;2023-12-22T09:17:36;9.40;99.90
23143;DHT22;11740;51.168;4.112;2023-12-22T09:20:03;9.40;1.00
23143;DHT22;11740;51.168;4.112;2023-12-22T09:22:30;9.40;1.00
23143;DHT22;11740;51.168;4.112;2023-12-22T09:24:57;9.40;1.00
23143;DHT22;11740;51.168;4.112;2023-12-22T09:27:24;9.40;1.00
23143;DHT22;11740;51.168;4.112;2023-12-22T09:29:55;9.40;99.90
23143;DHT22;11740;51.168;4.112;2023-12-22T09:32:22;9.40;99.90
23143;DHT22;11740;51.168;4.112;2023-12-22T09:34:49;9.50;99.90
23143;DHT22;11740;51.168;4.112;2023-12-22T09:37:16;9.50;99.90
23143;DHT22;11740;51.168;4.112;2023-12-22T09:39:43;9.60;99.90
23143;DHT22;11740;51.168;4.112;2023-12-22T09:42:10;9.60;99.90
23143;DHT22;11740;51.168;4.112;2023-12-22T09:44:39;9.60;99.90
23143;DHT22;11740;51.168;4.112;2023-12-22T09:47:09;9.60;99.90
23143;DHT22;11740;51.168;4.112;2023-12-22T09:49:40;9.60;99.90
23143;DHT22;11740;51.168;4.112;2023-12-22T09:52:08;9.60;16.50
23143;DHT22;11740;51.168;4.112;2023-12-22T09:54:36;9.60;1.00
23143;DHT22;11740;51.168;4.112;2023-12-22T09:57:05;9.70;1.00
23143;DHT22;11740;51.168;4.112;2023-12-22T09:59:49;9.70;1.00
23143;DHT22;11740;51.168;4.112;2023-12-22T10:02:18;9.70;1.00
23143;DHT22;11740;51.168;4.112;2023-12-22T10:04:45;9.70;1.00
23143;DHT22;11740;51.168;4.112;2023-12-22T10:07:13;9.70;1.00
23143;DHT22;11740;51.168;4.112;2023-12-22T10:09:42;9.80;1.00
23143;DHT22;11740;51.168;4.112;2023-12-22T10:12:11;9.80;1.00
23143;DHT22;11740;51.168;4.112;2023-12-22T10:14:40;9.80;1.00
23143;DHT22;11740;51.168;4.112;2023-12-22T10:17:08;9.80;1.00
23143;DHT22;11740;51.168;4.112;2023-12-22T10:19:35;9.90;1.00
23143;DHT22;11740;51.168;4.112;2023-12-22T10:22:02;9.80;1.00
23143;DHT22;11740;51.168;4.112;2023-12-22T10:24:40;9.90;1.00
23143;DHT22;11740;51.168;4.112;2023-12-22T10:27:10;9.90;1.00
23143;DHT22;11740;51.168;4.112;2023-12-22T10:29:37;9.90;1.00
23143;DHT22;11740;51.168;4.112;2023-12-22T10:32:05;9.90;1.00
23143;DHT22;11740;51.168;4.112;2023-12-22T10:34:34;9.90;1.00
23143;DHT22;11740;51.168;4.112;2023-12-22T10:37:02;9.90;1.00
23143;DHT22;11740;51.168;4.112;2023-12-22T10:39:30;9.90;1.00
23143;DHT22;11740;51.168;4.112;2023-12-22T10:41:58;9.90;1.00
23143;DHT22;11740;51.168;4.112;2023-12-22T10:44:26;9.90;1.00
23143;DHT22;11740;51.168;4.112;2023-12-22T10:46:53;9.90;1.00
23143;DHT22;11740;51.168;4.112;2023-12-22T10:49:24;9.90;1.00
23143;DHT22;11740;51.168;4.112;2023-12-22T10:51:51;9.90;1.00
23143;DHT22;11740;51.168;4.112;2023-12-22T10:54:19;9.90;1.00
23143;DHT22;11740;51.168;4.112;2023-12-22T10:56:46;9.90;1.00
23143;DHT22;11740;51.168;4.112;2023-12-22T10:59:18;9.90;1.00
23143;DHT22;11740;51.168;4.112;2023-12-22T11:01:45;9.90;1.00
23143;DHT22;11740;51.168;4.112;2023-12-22T11:04:18;9.90;1.00
23143;DHT22;11740;51.168;4.112;2023-12-22T11:06:49;9.80;1.00
23143;DHT22;11740;51.168;4.112;2023-12-22T11:09:21;9.80;1.00
23143;DHT22;11740;51.168;4.112;2023-12-22T11:11:51;9.80;1.00
23143;DHT22;11740;51.168;4.112;2023-12-22T11:14:19;9.90;1.00
23143;DHT22;11740;51.168;4.112;2023-12-22T11:16:47;9.90;1.00
23143;DHT22;11740;51.168;4.112;2023-12-22T11:19:15;9.90;1.00
23143;DHT22;11740;51.168;4.112;2023-12-22T11:21:43;9.90;1.00
23143;DHT22;11740;51.168;4.112;2023-12-22T11:24:13;9.90;99.90
23143;DHT22;11740;51.168;4.112;2023-12-22T11:26:41;9.90;99.90
23143;DHT22;11740;51.168;4.112;2023-12-22T11:29:09;10.00;99.90
23143;DHT22;11740;51.168;4.112;2023-12-22T11:31:37;10.00;99.90
23143;DHT22;11740;51.168;4.112;2023-12-22T11:34:07;10.00;99.90
23143;DHT22;11740;51.168;4.112;2023-12-22T11:36:42;10.00;97.30
23143;DHT22;11740;51.168;4.112;2023-12-22T11:39:10;10.00;21.60
23143;DHT22;11740;51.168;4.112;2023-12-22T11:41:37;10.00;1.00
23143;DHT22;11740;51.168;4.112;2023-12-22T11:44:06;10.00;1.00
23143;DHT22;11740;51.168;4.112;2023-12-22T11:46:33;10.10;1.00
23143;DHT22;11740;51.168;4.112;2023-12-22T11:49:01;10.10;1.00
23143;DHT22;11740;51.168;4.112;2023-12-22T11:51:32;10.10;1.00
23143;DHT22;11740;51.168;4.112;2023-12-22T11:54:03;10.20;1.00
23143;DHT22;11740;51.168;4.112;2023-12-22T11:56:30;10.20;99.90
23143;DHT22;11740;51.168;4.112;2023-12-22T11:58:58;10.20;1.00
23143;DHT22;11740;51.168;4.112;2023-12-22T12:01:27;10.20;1.00
23143;DHT22;11740;51.168;4.112;2023-12-22T12:04:02;10.20;1.00
23143;DHT22;11740;51.168;4.112;2023-12-22T12:06:32;10.20;1.00
23143;DHT22;11740;51.168;4.112;2023-12-22T12:09:03;10.20;1.00
23143;DHT22;11740;51.168;4.112;2023-12-22T12:14:40;10.20;99.90
23143;DHT22;11740;51.168;4.112;2023-12-22T12:17:08;10.20;99.90
23143;DHT22;11740;51.168;4.112;2023-12-22T12:19:39;10.20;99.90
23143;DHT22;11740;51.168;4.112;2023-12-22T12:22:11;10.20;99.90
23143;DHT22;11740;51.168;4.112;2023-12-22T12:24:39;10.20;99.90
23143;DHT22;11740;51.168;4.112;2023-12-22T12:27:07;10.20;99.90
23143;DHT22;11740;51.168;4.112;2023-12-22T12:29:34;10.20;99.90
23143;DHT22;11740;51.168;4.112;2023-12-22T12:32:05;10.20;99.90
23143;DHT22;11740;51.168;4.112;2023-12-22T12:34:33;10.20;99.90
23143;DHT22;11740;51.168;4.112;2023-12-22T12:37:01;10.20;99.90
23143;DHT22;11740;51.168;4.112;2023-12-22T12:39:30;10.20;99.90
23143;DHT22;11740;51.168;4.112;2023-12-22T12:42:00;10.20;99.90
23143;DHT22;11740;51.168;4.112;2023-12-22T12:44:30;10.20;99.90
23143;DHT22;11740;51.168;4.112;2023-12-22T12:47:14;10.20;94.80
23143;DHT22;11740;51.168;4.112;2023-12-22T12:49:41;10.20;38.30
23143;DHT22;11740;51.168;4.112;2023-12-22T12:52:14;10.30;75.80
23143;DHT22;11740;51.168;4.112;2023-12-22T12:54:42;10.20;99.90
23143;DHT22;11740;51.168;4.112;2023-12-22T12:57:15;10.20;99.90
23143;DHT22;11740;51.168;4.112;2023-12-22T12:59:49;10.30;28.90
23143;DHT22;11740;51.168;4.112;2023-12-22T13:02:17;10.30;1.00
23143;DHT22;11740;51.168;4.112;2023-12-22T13:04:44;10.30;1.00
23143;DHT22;11740;51.168;4.112;2023-12-22T13:07:12;10.30;1.00
23143;DHT22;11740;51.168;4.112;2023-12-22T13:09:41;10.30;1.00
23143;DHT22;11740;51.168;4.112;2023-12-22T13:12:09;10.30;1.00
23143;DHT22;11740;51.168;4.112;2023-12-22T13:14:36;10.30;1.00
23143;DHT22;11740;51.168;4.112;2023-12-22T13:17:03;10.30;1.00
23143;DHT22;11740;51.168;4.112;2023-12-22T13:19:31;10.30;1.00
23143;DHT22;11740;51.168;4.112;2023-12-22T13:21:59;10.30;1.00
23143;DHT22;11740;51.168;4.112;2023-12-22T13:24:27;10.30;1.00
23143;DHT22;11740;51.168;4.112;2023-12-22T13:27:03;10.30;1.00
23143;DHT22;11740;51.168;4.112;2023-12-22T13:29:43;10.30;1.00
23143;DHT22;11740;51.168;4.112;2023-12-22T13:32:18;10.30;1.00
23143;DHT22;11740;51.168;4.112;2023-12-22T13:34:50;10.30;1.00
23143;DHT22;11740;51.168;4.112;2023-12-22T13:37:18;10.30;1.00
23143;DHT22;11740;51.168;4.112;2023-12-22T13:39:46;10.30;1.00
23143;DHT22;11740;51.168;4.112;2023-12-22T13:42:15;10.30;1.00
23143;DHT22;11740;51.168;4.112;2023-12-22T13:44:44;10.40;1.00
23143;DHT22;11740;51.168;4.112;2023-12-22T13:47:14;10.40;1.00
23143;DHT22;11740;51.168;4.112;2023-12-22T13:49:42;10.40;99.90
23143;DHT22;11740;51.168;4.112;2023-12-22T13:52:29;10.40;99.90
23143;DHT22;11740;51.168;4.112;2023-12-22T13:55:01;10.40;99.90
23143;DHT22;11740;51.168;4.112;2023-12-22T13:57:29;10.40;99.90
23143;DHT22;11740;51.168;4.112;2023-12-22T13:59:56;10.40;99.90
23143;DHT22;11740;51.168;4.112;2023-12-22T14:02:23;10.40;99.90
23143;DHT22;11740;51.168;4.112;2023-12-22T14:04:51;10.40;99.90
23143;DHT22;11740;51.168;4.112;2023-12-22T14:07:18;10.40;99.90
23143;DHT22;11740;51.168;4.112;2023-12-22T14:09:46;10.40;99.90
23143;DHT22;11740;51.168;4.112;2023-12-22T14:12:13;10.40;99.90
23143;DHT22;11740;51.168;4.112;2023-12-22T14:14:50;10.40;99.90
23143;DHT22;11740;51.168;4.112;2023-12-22T14:17:17;10.50;99.90
23143;DHT22;11740;51.168;4.112;2023-12-22T14:19:44;10.50;99.90
23143;DHT22;11740;51.168;4.112;2023-12-22T14:22:11;10.50;36.60
23143;DHT22;11740;51.168;4.112;2023-12-22T14:24:38;10.50;53.20
23143;DHT22;11740;51.168;4.112;2023-12-22T14:27:05;10.50;1.00
23143;DHT22;11740;51.168;4.112;2023-12-22T14:29:31;10.50;1.00
23143;DHT22;11740;51.168;4.112;2023-12-22T14:32:00;10.50;1.00
23143;DHT22;11740;51.168;4.112;2023-12-22T14:34:27;10.40;12.10
23143;DHT22;11740;51.168;4.112;2023-12-22T14:36:54;10.50;25.10
23143;DHT22;11740;51.168;4.112;2023-12-22T14:39:21;10.50;67.10
23143;DHT22;11740;51.168;4.112;2023-12-22T14:41:48;10.40;41.10
23143;DHT22;11740;51.168;4.112;2023-12-22T14:44:15;10.50;1.00
23143;DHT22;11740;51.168;4.112;2023-12-22T14:46:42;10.50;1.00
23143;DHT22;11740;51.168;4.112;2023-12-22T14:49:09;10.50;1.00
23143;DHT22;11740;51.168;4.112;2023-12-22T14:51:40;10.50;1.00
23143;DHT22;11740;51.168;4.112;2023-12-22T14:54:07;10.50;1.00
23143;DHT22;11740;51.168;4.112;2023-12-22T14:56:38;10.50;1.00
23143;DHT22;11740;51.168;4.112;2023-12-22T14:59:05;10.50;1.00
23143;DHT22;11740;51.168;4.112;2023-12-22T15:01:32;10.50;1.00
23143;DHT22;11740;51.168;4.112;2023-12-22T15:04:00;10.50;1.00
23143;DHT22;11740;51.168;4.112;2023-12-22T15:06:29;10.50;1.00
23143;DHT22;11740;51.168;4.112;2023-12-22T15:08:56;10.50;1.00
23143;DHT22;11740;51.168;4.112;2023-12-22T15:11:23;10.50;1.00
23143;DHT22;11740;51.168;4.112;2023-12-22T15:13:50;10.50;1.00
23143;DHT22;11740;51.168;4.112;2023-12-22T15:16:17;10.50;1.00
23143;DHT22;11740;51.168;4.112;2023-12-22T15:18:45;10.50;1.00
23143;DHT22;11740;51.168;4.112;2023-12-22T15:21:22;10.50;1.00
23143;DHT22;11740;51.168;4.112;2023-12-22T15:23:50;10.50;99.90
23143;DHT22;11740;51.168;4.112;2023-12-22T15:26:21;10.50;1.00
23143;DHT22;11740;51.168;4.112;2023-12-22T15:28:49;10.50;1.00
23143;DHT22;11740;51.168;4.112;2023-12-22T15:31:16;10.50;99.90
23143;DHT22;11740;51.168;4.112;2023-12-22T15:33:43;10.50;99.90
23143;DHT22;11740;51.168;4.112;2023-12-22T15:36:10;10.60;99.90
23143;DHT22;11740;51.168;4.112;2023-12-22T15:38:37;10.60;99.90
23143;DHT22;11740;51.168;4.112;2023-12-22T15:41:04;10.60;99.90
23143;DHT22;11740;51.168;4.112;2023-12-22T15:43:31;10.60;99.90
23143;DHT22;11740;51.168;4.112;2023-12-22T15:46:04;10.60;99.90
23143;DHT22;11740;51.168;4.112;2023-12-22T15:48:31;10.50;99.90
23143;DHT22;11740;51.168;4.112;2023-12-22T15:50:58;10.60;99.90
23143;DHT22;11740;51.168;4.112;2023-12-22T15:53:30;10.50;99.90
23143;DHT22;11740;51.168;4.112;2023-12-22T15:55:57;10.60;99.90
23143;DHT22;11740;51.168;4.112;2023-12-22T15:58:25;10.60;99.90
23143;DHT22;11740;51.168;4.112;2023-12-22T16:00:52;10.50;99.90
23143;DHT22;11740;51.168;4.112;2023-12-22T16:03:21;10.50;99.90
23143;DHT22;11740;51.168;4.112;2023-12-22T16:05:49;10.50;99.90